Archival Weather

Half Moon Bay

Half Moon Bay, California (KHAF)

Report from: Saturday, September 30, 2023 8:55 AM PDT
Current time: Monday, June 17, 2024 4:46 AM PDT

Current weather – Weather history – Daily summaries
Weather forecast

Present weatherMist
Temperature14.0°C (57.2°F)
Dew point13.0°C (55.4°F)
Winds 11 kts (5.7 m/s, 12.7 mph) North-Northwest (330°)
Visibility3 mi. (4.8 km)
Clouds Ceiling: Overcast 1,200 ft. (366 m)
Altimeter29.81 in.Hg (1009 mB)
Relative humidity94 %
Density altitude218 ft. (66 m)
Remarks Fully automated report
Automated weather observing station with precipitation discriminator
Flight conditions Marginal Visual Meteorological Conditions
Raw dataKHAF 301555Z AUTO 33011KT 3SM BR OVC012 14/13 A2981 RMK AO2
An error has occurred. This application may no longer respond until reloaded. Reload 🗙